Terminal Aerodrome Forecast
Issued by NWS

Home | Current Version | Previous Version | Text Only | Print | Product List | Glossary On
Versions: 1 2 3 4 5 6 7 8 9 10 11 12 13 14 15 16 17 18 19 20 21 22 23 24 25 26
000
FTAK31 PANC 281135
TAFAHO
TAF
PAHO 281135Z 2812/0112 VRB03KT P6SM OVC035
     FM282000 VRB04KT P6SM VCSH OVC025
      TEMPO 2822/0102 4SM -RASN
     FM010600 VRB03KT P6SM SCT035 BKN060
     FM011000 03003KT P6SM SCT060 SCT100=

USA.gov is the U.S. government's official web portal to all federal, state and local government web resources and services.